Time;durP1;ratioP1;P1;durP2;ratioP2;P2;SDS_P1;SDS_P2;PMS_P1;PMS_P2;Temp;Humidity;BMP_temperature;BMP_pressure;BME280_temperature;BME280_humidity;BME280_pressure;Samples;Min_cycle;Max_cycle;Signal;HPM_P1;HPM_P2
2022/08/07 00:01:42;;;;;;;0.70;0.70;;;;;;;;;;5072012;28;20558;-59
2022/08/07 00:04:08;;;;;;;0.70;0.70;;;;;;;;;;5069313;28;20700;-60
2022/08/07 00:06:34;;;;;;;0.70;0.70;;;;;;;;;;5070668;28;20211;-59
2022/08/07 00:09:00;;;;;;;0.80;0.80;;;;;;;;;;5070252;28;20184;-59
2022/08/07 00:11:26;;;;;;;0.80;0.80;;;;;;;;;;5071960;28;20194;-59
2022/08/07 00:13:52;;;;;;;0.70;0.70;;;;;;;;;;5066679;28;20598;-60
2022/08/07 00:16:18;;;;;;;0.70;0.70;;;;;;;;;;5067520;28;20198;-59
2022/08/07 00:18:44;;;;;;;0.80;0.80;;;;;;;;;;5066807;28;20187;-60
2022/08/07 00:21:10;;;;;;;1.10;1.10;;;;;;;;;;5071308;28;20194;-59
2022/08/07 00:23:37;;;;;;;1.07;1.07;;;;;;;;;;5068256;28;20258;-59
2022/08/07 00:26:03;;;;;;;1.00;1.00;;;;;;;;;;5072434;28;20223;-59
2022/08/07 00:28:29;;;;;;;1.10;1.10;;;;;;;;;;5064935;28;20194;-59
2022/08/07 00:30:55;;;;;;;1.30;1.30;;;;;;;;;;5067065;28;20219;-60
2022/08/07 00:33:25;;;;;;;1.00;1.00;;;;;;;;;;5067628;28;20916;-60
2022/08/07 00:35:52;;;;;;;1.30;1.30;;;;;;;;;;5064878;28;20187;-59
2022/08/07 00:38:17;;;;;;;1.30;1.30;;;;;;;;;;5062949;28;20270;-59
2022/08/07 00:40:43;;;;;;;1.40;1.40;;;;;;;;;;5064548;28;20197;-59
2022/08/07 00:43:10;;;;;;;1.50;1.50;;;;;;;;;;5066651;28;20273;-59
2022/08/07 00:45:36;;;;;;;1.40;1.40;;;;;;;;;;5065458;28;20264;-60
2022/08/07 00:48:02;;;;;;;1.43;1.43;;;;;;;;;;5060706;28;20182;-59
2022/08/07 00:50:27;;;;;;;1.20;1.20;;;;;;;;;;5062170;28;20896;-59
2022/08/07 00:52:53;;;;;;;1.40;1.40;;;;;;;;;;5068599;28;20274;-59
2022/08/07 00:55:19;;;;;;;1.10;1.10;;;;;;;;;;5066631;28;20202;-59
2022/08/07 00:57:45;;;;;;;1.40;1.40;;;;;;;;;;5071426;28;20198;-59
2022/08/07 01:00:11;;;;;;;1.37;1.37;;;;;;;;;;5065635;28;20195;-59
2022/08/07 01:02:37;;;;;;;1.17;1.17;;;;;;;;;;5072710;28;20267;-60
2022/08/07 01:05:05;;;;;;;1.20;1.20;;;;;;;;;;5062768;28;20216;-61
2022/08/07 01:07:31;;;;;;;1.37;1.37;;;;;;;;;;5057783;28;20201;-61
2022/08/07 01:09:57;;;;;;;1.20;1.20;;;;;;;;;;5064180;28;20649;-60
2022/08/07 01:12:23;;;;;;;1.30;1.30;;;;;;;;;;5067012;28;20695;-61
2022/08/07 01:14:49;;;;;;;1.30;1.30;;;;;;;;;;5066870;28;20191;-61
2022/08/07 01:17:15;;;;;;;1.37;1.37;;;;;;;;;;5064347;28;20192;-61
2022/08/07 01:19:41;;;;;;;1.40;1.40;;;;;;;;;;5060568;28;20303;-61
2022/08/07 01:22:07;;;;;;;1.50;1.50;;;;;;;;;;5061899;28;20279;-61
2022/08/07 01:24:33;;;;;;;1.50;1.50;;;;;;;;;;5063929;28;20700;-61
2022/08/07 01:26:59;;;;;;;1.90;1.80;;;;;;;;;;5065594;28;20186;-61
2022/08/07 01:29:26;;;;;;;1.40;1.40;;;;;;;;;;5071791;28;20184;-60
2022/08/07 01:31:52;;;;;;;1.90;1.80;;;;;;;;;;5061354;28;20192;-61
2022/08/07 01:34:18;;;;;;;1.97;1.87;;;;;;;;;;5065695;28;20782;-60
2022/08/07 01:36:44;;;;;;;2.03;1.93;;;;;;;;;;5056742;28;20187;-61
2022/08/07 01:39:10;;;;;;;2.00;1.90;;;;;;;;;;5069143;28;20191;-61
2022/08/07 01:41:37;;;;;;;1.80;1.70;;;;;;;;;;5062758;28;20194;-60
2022/08/07 01:44:03;;;;;;;1.93;1.83;;;;;;;;;;5068103;28;20290;-61
2022/08/07 01:46:29;;;;;;;2.03;1.93;;;;;;;;;;5059591;28;20664;-61
2022/08/07 01:48:55;;;;;;;1.90;1.80;;;;;;;;;;5068805;28;20244;-61
2022/08/07 01:51:22;;;;;;;1.67;1.67;;;;;;;;;;5069636;28;20184;-61
2022/08/07 01:53:57;;;;;;;1.83;1.73;;;;;;;;;;5070007;28;20186;-61
2022/08/07 01:56:25;;;;;;;1.30;1.30;;;;;;;;;;5070801;28;20278;-60
2022/08/07 01:58:58;;;;;;;1.43;1.43;;;;;;;;;;5066894;28;20183;-61
2022/08/07 02:01:25;;;;;;;1.90;1.80;;;;;;;;;;5070270;28;20179;-61
2022/08/07 02:03:59;;;;;;;2.00;1.90;;;;;;;;;;5051317;28;20667;-61
2022/08/07 02:06:25;;;;;;;1.80;1.70;;;;;;;;;;5050141;28;20967;-61
2022/08/07 02:08:51;;;;;;;1.90;1.80;;;;;;;;;;5068445;28;20187;-60
2022/08/07 02:11:17;;;;;;;1.60;1.60;;;;;;;;;;5098394;28;20267;-60
2022/08/07 02:13:43;;;;;;;1.50;1.50;;;;;;;;;;5081545;28;20196;-60
2022/08/07 02:16:09;;;;;;;1.50;1.50;;;;;;;;;;5073132;28;20290;-60
2022/08/07 02:18:35;;;;;;;1.43;1.43;;;;;;;;;;5067291;28;20739;-60
2022/08/07 02:21:02;;;;;;;1.40;1.40;;;;;;;;;;5067853;28;20233;-60
2022/08/07 02:23:28;;;;;;;1.40;1.40;;;;;;;;;;5070074;28;20218;-61
2022/08/07 02:25:54;;;;;;;1.40;1.40;;;;;;;;;;5063572;28;20886;-60
2022/08/07 02:28:20;;;;;;;1.40;1.40;;;;;;;;;;5073670;28;20265;-61
2022/08/07 02:30:47;;;;;;;1.50;1.50;;;;;;;;;;5061737;28;20325;-61
2022/08/07 02:33:13;;;;;;;1.50;1.50;;;;;;;;;;5062976;28;20240;-60
2022/08/07 02:35:39;;;;;;;1.60;1.60;;;;;;;;;;5067008;28;20190;-61
2022/08/07 02:38:05;;;;;;;1.60;1.60;;;;;;;;;;5073124;28;20183;-60
2022/08/07 02:40:31;;;;;;;1.60;1.60;;;;;;;;;;5067288;28;20195;-60
2022/08/07 02:42:57;;;;;;;1.60;1.60;;;;;;;;;;5068540;28;20251;-61
2022/08/07 02:45:24;;;;;;;1.50;1.50;;;;;;;;;;5066078;28;20696;-61
2022/08/07 02:47:50;;;;;;;1.80;1.70;;;;;;;;;;5054980;28;20233;-60
2022/08/07 02:50:16;;;;;;;1.70;1.70;;;;;;;;;;5062966;28;20176;-60
2022/08/07 02:52:56;;;;;;;2.27;2.17;;;;;;;;;;5056638;28;20260;-60
2022/08/07 02:55:23;;;;;;;2.13;2.03;;;;;;;;;;5066140;28;20276;-61
2022/08/07 02:57:49;;;;;;;2.00;1.90;;;;;;;;;;5058193;28;20186;-61
2022/08/07 03:00:15;;;;;;;0.80;0.80;;;;;;;;;;5064618;28;20660;-60
2022/08/07 03:02:42;;;;;;;0.80;0.80;;;;;;;;;;5060102;28;20206;-60
2022/08/07 03:05:08;;;;;;;0.70;0.70;;;;;;;;;;5062906;28;20263;-61
2022/08/07 03:07:34;;;;;;;0.80;0.80;;;;;;;;;;5062942;28;20195;-60
2022/08/07 03:10:00;;;;;;;1.40;1.40;;;;;;;;;;5051138;28;20519;-61
2022/08/07 03:12:26;;;;;;;1.40;1.40;;;;;;;;;;5061969;28;20183;-60
2022/08/07 03:14:52;;;;;;;1.60;1.60;;;;;;;;;;5064685;28;20844;-60
2022/08/07 03:17:18;;;;;;;1.90;1.80;;;;;;;;;;5062977;28;20187;-61
2022/08/07 03:19:44;;;;;;;1.90;1.80;;;;;;;;;;5064994;28;20191;-61
2022/08/07 03:22:10;;;;;;;2.13;2.03;;;;;;;;;;5059168;28;20188;-60
2022/08/07 03:24:36;;;;;;;1.73;1.70;;;;;;;;;;5064279;28;20616;-61
2022/08/07 03:27:02;;;;;;;1.97;1.87;;;;;;;;;;5060682;28;20273;-60
2022/08/07 03:29:33;;;;;;;1.80;1.70;;;;;;;;;;5061619;28;20187;-60
2022/08/07 03:31:59;;;;;;;1.80;1.70;;;;;;;;;;5060273;28;20278;-60
2022/08/07 03:34:26;;;;;;;1.77;1.70;;;;;;;;;;5051008;28;20241;-61
2022/08/07 03:36:52;;;;;;;1.70;1.67;;;;;;;;;;5059711;28;20210;-61
2022/08/07 03:39:17;;;;;;;1.40;1.40;;;;;;;;;;5061107;28;21245;-61
2022/08/07 03:41:43;;;;;;;1.60;1.60;;;;;;;;;;5067051;28;22204;-60
2022/08/07 03:44:09;;;;;;;1.60;1.60;;;;;;;;;;5065212;28;20585;-60
2022/08/07 03:46:36;;;;;;;1.80;1.70;;;;;;;;;;5060442;28;20311;-60
2022/08/07 03:49:02;;;;;;;1.50;1.50;;;;;;;;;;5067373;28;20258;-60
2022/08/07 03:51:28;;;;;;;1.90;1.80;;;;;;;;;;5064797;28;20191;-60
2022/08/07 03:53:54;;;;;;;1.70;1.70;;;;;;;;;;5069740;28;20190;-60
2022/08/07 03:56:21;;;;;;;1.60;1.60;;;;;;;;;;5066671;28;21109;-60
2022/08/07 03:58:47;;;;;;;1.50;1.50;;;;;;;;;;5070324;28;20202;-60
2022/08/07 04:01:13;;;;;;;1.40;1.40;;;;;;;;;;5072831;28;20689;-60
2022/08/07 04:03:39;;;;;;;1.30;1.30;;;;;;;;;;5067086;28;20558;-60
2022/08/07 04:06:09;;;;;;;1.40;1.40;;;;;;;;;;5067918;28;20210;-61
2022/08/07 04:08:35;;;;;;;1.73;1.70;;;;;;;;;;5067351;28;20176;-62
2022/08/07 04:11:00;;;;;;;0.80;0.80;;;;;;;;;;5069209;28;20209;-60
2022/08/07 04:13:26;;;;;;;0.70;0.70;;;;;;;;;;5068958;28;20188;-61
2022/08/07 04:15:52;;;;;;;0.70;0.70;;;;;;;;;;5067734;28;20251;-61
2022/08/07 04:18:18;;;;;;;0.70;0.70;;;;;;;;;;5071333;28;20187;-60
2022/08/07 04:20:44;;;;;;;0.70;0.70;;;;;;;;;;5064594;28;20225;-61
2022/08/07 04:23:10;;;;;;;0.87;0.87;;;;;;;;;;5060162;28;20210;-60
2022/08/07 04:25:37;;;;;;;0.70;0.70;;;;;;;;;;5051708;28;20277;-61
2022/08/07 04:28:05;;;;;;;0.80;0.80;;;;;;;;;;5042911;28;20225;-61
2022/08/07 04:30:31;;;;;;;0.70;0.70;;;;;;;;;;5058221;28;20238;-61
2022/08/07 04:32:57;;;;;;;0.70;0.70;;;;;;;;;;5061245;28;21105;-60
2022/08/07 04:35:23;;;;;;;0.80;0.80;;;;;;;;;;5067817;28;20192;-61
2022/08/07 04:37:49;;;;;;;0.80;0.80;;;;;;;;;;5070105;28;20198;-61
2022/08/07 04:40:16;;;;;;;0.70;0.70;;;;;;;;;;5066369;28;20191;-61
2022/08/07 04:42:42;;;;;;;1.10;1.10;;;;;;;;;;5067222;28;20183;-61
2022/08/07 04:45:10;;;;;;;1.10;1.10;;;;;;;;;;5063715;28;20234;-61
2022/08/07 04:47:55;;;;;;;1.00;1.00;;;;;;;;;;5068153;28;20266;-61
2022/08/07 04:50:33;;;;;;;1.00;1.00;;;;;;;;;;5068475;28;20186;-61
2022/08/07 04:53:00;;;;;;;1.23;1.23;;;;;;;;;;5062803;28;20218;-61
2022/08/07 04:55:41;;;;;;;1.20;1.20;;;;;;;;;;5066480;28;20196;-61
2022/08/07 04:58:14;;;;;;;1.10;1.10;;;;;;;;;;5058177;28;20190;-61
2022/08/07 05:00:44;;;;;;;1.00;1.00;;;;;;;;;;5057726;28;20294;-60
2022/08/07 05:03:14;;;;;;;1.00;1.00;;;;;;;;;;5066531;28;20186;-60
2022/08/07 05:05:43;;;;;;;1.00;1.00;;;;;;;;;;5070300;28;20208;-61
2022/08/07 05:08:09;;;;;;;1.00;1.00;;;;;;;;;;5064579;28;20184;-61
2022/08/07 05:10:36;;;;;;;1.00;1.00;;;;;;;;;;5066942;28;20663;-61
2022/08/07 05:13:03;;;;;;;1.10;1.10;;;;;;;;;;5066770;28;20718;-60
2022/08/07 05:15:30;;;;;;;1.10;1.10;;;;;;;;;;5065203;28;20261;-60
2022/08/07 05:18:04;;;;;;;1.10;1.10;;;;;;;;;;5066022;28;21064;-60
2022/08/07 05:20:31;;;;;;;1.00;1.00;;;;;;;;;;5051621;28;20647;-61
2022/08/07 05:22:58;;;;;;;0.93;0.93;;;;;;;;;;5044776;28;20188;-61
2022/08/07 05:25:24;;;;;;;1.10;1.10;;;;;;;;;;5063126;28;20739;-60
2022/08/07 05:27:50;;;;;;;1.00;1.00;;;;;;;;;;5064475;28;20187;-61
2022/08/07 05:30:16;;;;;;;0.90;0.90;;;;;;;;;;5060367;28;20219;-60
2022/08/07 05:32:42;;;;;;;1.10;1.10;;;;;;;;;;5061340;28;20670;-60
2022/08/07 05:35:08;;;;;;;1.03;1.03;;;;;;;;;;5062741;28;20175;-60
2022/08/07 05:37:35;;;;;;;0.90;0.90;;;;;;;;;;5047251;28;20190;-61
2022/08/07 05:40:01;;;;;;;1.00;1.00;;;;;;;;;;5067559;28;20194;-61
2022/08/07 05:42:27;;;;;;;1.03;1.03;;;;;;;;;;5062014;28;20194;-60
2022/08/07 05:44:53;;;;;;;1.10;1.10;;;;;;;;;;5066474;28;20210;-61
2022/08/07 05:47:19;;;;;;;1.20;1.20;;;;;;;;;;5076537;28;20190;-61
2022/08/07 05:49:48;;;;;;;1.10;1.10;;;;;;;;;;5065539;28;20273;-61
2022/08/07 05:52:14;;;;;;;1.10;1.10;;;;;;;;;;5063090;28;20262;-61
2022/08/07 05:54:40;;;;;;;1.23;1.23;;;;;;;;;;5072605;28;20599;-61
2022/08/07 05:57:06;;;;;;;1.33;1.33;;;;;;;;;;5072673;28;20720;-61
2022/08/07 05:59:32;;;;;;;1.20;1.20;;;;;;;;;;5072270;28;20183;-61
2022/08/07 06:01:58;;;;;;;1.40;1.40;;;;;;;;;;5068325;28;20184;-61
2022/08/07 06:04:24;;;;;;;1.20;1.20;;;;;;;;;;5060728;28;20768;-61
2022/08/07 06:06:50;;;;;;;1.20;1.20;;;;;;;;;;5072231;28;20207;-61
2022/08/07 06:09:16;;;;;;;1.10;1.10;;;;;;;;;;5073609;28;20183;-61
2022/08/07 06:11:42;;;;;;;1.30;1.30;;;;;;;;;;5066297;28;20704;-61
2022/08/07 06:14:08;;;;;;;1.30;1.30;;;;;;;;;;5055374;28;20637;-61
2022/08/07 06:16:34;;;;;;;1.90;1.80;;;;;;;;;;5062684;28;20757;-61
2022/08/07 06:19:00;;;;;;;1.30;1.30;;;;;;;;;;5066083;28;20194;-61
2022/08/07 06:21:27;;;;;;;1.30;1.30;;;;;;;;;;5070812;28;20291;-61
2022/08/07 06:23:53;;;;;;;1.30;1.30;;;;;;;;;;5065706;28;20721;-61
2022/08/07 06:26:18;;;;;;;1.40;1.40;;;;;;;;;;5066967;28;20198;-61
2022/08/07 06:28:55;;;;;;;1.30;1.30;;;;;;;;;;5064328;28;20179;-60
2022/08/07 06:31:21;;;;;;;1.30;1.30;;;;;;;;;;5068696;28;20277;-61
2022/08/07 06:33:47;;;;;;;1.30;1.30;;;;;;;;;;5058657;28;20271;-61
2022/08/07 06:36:13;;;;;;;1.30;1.30;;;;;;;;;;5064328;28;20199;-61
2022/08/07 06:38:40;;;;;;;1.30;1.30;;;;;;;;;;5070586;28;20222;-61
2022/08/07 06:41:07;;;;;;;1.20;1.20;;;;;;;;;;5065982;28;20329;-61
2022/08/07 06:43:34;;;;;;;1.20;1.20;;;;;;;;;;5062677;28;20290;-61
2022/08/07 06:46:00;;;;;;;1.20;1.20;;;;;;;;;;5061886;28;20207;-61
2022/08/07 06:48:26;;;;;;;1.10;1.10;;;;;;;;;;5066363;28;20183;-61
2022/08/07 06:50:53;;;;;;;1.50;1.50;;;;;;;;;;5067411;28;20632;-61
2022/08/07 06:53:20;;;;;;;1.70;1.70;;;;;;;;;;5049300;28;20189;-61
2022/08/07 06:55:46;;;;;;;1.60;1.60;;;;;;;;;;5053953;28;20195;-61
2022/08/07 06:58:12;;;;;;;1.53;1.53;;;;;;;;;;5065900;28;20190;-60
2022/08/07 07:00:38;;;;;;;1.50;1.50;;;;;;;;;;5068057;28;20318;-61
2022/08/07 07:03:04;;;;;;;1.40;1.40;;;;;;;;;;5064181;28;20183;-61
2022/08/07 07:05:30;;;;;;;1.50;1.50;;;;;;;;;;5062174;28;20214;-61
2022/08/07 07:07:56;;;;;;;1.40;1.40;;;;;;;;;;5062419;28;20538;-61
2022/08/07 07:10:29;;;;;;;0.70;0.70;;;;;;;;;;5066047;28;20187;-61
2022/08/07 07:12:56;;;;;;;1.00;1.00;;;;;;;;;;5064546;28;20184;-61
2022/08/07 07:15:33;;;;;;;1.20;1.20;;;;;;;;;;5050477;28;21248;-61
2022/08/07 07:18:02;;;;;;;0.80;0.80;;;;;;;;;;5061265;28;20190;-61
2022/08/07 07:20:48;;;;;;;0.70;0.70;;;;;;;;;;5063871;28;20191;-60
2022/08/07 07:23:14;;;;;;;1.30;1.30;;;;;;;;;;5058377;28;20204;-60
2022/08/07 07:25:40;;;;;;;0.83;0.83;;;;;;;;;;5064407;28;20254;-60
2022/08/07 07:28:12;;;;;;;1.00;1.00;;;;;;;;;;5058516;28;20187;-59
2022/08/07 07:30:40;;;;;;;0.90;0.90;;;;;;;;;;5071157;28;20239;-60
2022/08/07 07:33:06;;;;;;;0.90;0.90;;;;;;;;;;5069206;28;20682;-59
2022/08/07 07:35:32;;;;;;;1.00;1.00;;;;;;;;;;5056916;28;20188;-59
2022/08/07 07:37:58;;;;;;;1.00;1.00;;;;;;;;;;5064796;28;20191;-60
2022/08/07 07:40:24;;;;;;;0.90;0.90;;;;;;;;;;5052026;28;20252;-60
2022/08/07 07:42:51;;;;;;;1.00;1.00;;;;;;;;;;5062773;28;20997;-60
2022/08/07 07:45:17;;;;;;;1.05;1.05;;;;;;;;;;5063389;28;20264;-60
2022/08/07 07:47:43;;;;;;;1.00;1.00;;;;;;;;;;5053645;28;20198;-60
2022/08/07 07:50:10;;;;;;;1.13;1.13;;;;;;;;;;5065384;28;20254;-59
2022/08/07 07:52:36;;;;;;;0.98;0.98;;;;;;;;;;5052050;28;20179;-60
2022/08/07 07:55:02;;;;;;;1.00;1.00;;;;;;;;;;5050084;28;20250;-60
2022/08/07 07:57:28;;;;;;;0.90;0.90;;;;;;;;;;5054146;28;20562;-61
2022/08/07 07:59:54;;;;;;;0.90;0.90;;;;;;;;;;5066745;28;20183;-61
2022/08/07 08:02:20;;;;;;;1.00;1.00;;;;;;;;;;5062733;28;20196;-61
2022/08/07 08:04:46;;;;;;;1.10;1.10;;;;;;;;;;5049937;28;20199;-61
2022/08/07 08:07:12;;;;;;;1.17;1.17;;;;;;;;;;5056385;28;20721;-61
2022/08/07 08:09:38;;;;;;;1.10;1.10;;;;;;;;;;5053101;28;20179;-59
2022/08/07 08:12:05;;;;;;;0.90;0.90;;;;;;;;;;5064375;28;20650;-60
2022/08/07 08:14:31;;;;;;;1.00;1.00;;;;;;;;;;5061710;28;20414;-60
2022/08/07 08:16:57;;;;;;;1.00;1.00;;;;;;;;;;5058310;28;20198;-59
2022/08/07 08:19:24;;;;;;;1.00;1.00;;;;;;;;;;5060639;28;20198;-59
2022/08/07 08:27:24;;;;;;;1.00;1.00;;;;;;;;;;5053088;28;20217;-60
2022/08/07 08:29:51;;;;;;;0.90;0.90;;;;;;;;;;5053339;28;20311;-59
2022/08/07 08:32:18;;;;;;;0.80;0.80;;;;;;;;;;5043302;28;20184;-59
2022/08/07 08:34:45;;;;;;;0.90;0.90;;;;;;;;;;5060735;28;20179;-59
2022/08/07 08:37:12;;;;;;;0.70;0.70;;;;;;;;;;5060378;28;20202;-59
2022/08/07 08:39:38;;;;;;;0.80;0.80;;;;;;;;;;5036064;28;20672;-59
2022/08/07 08:42:05;;;;;;;1.00;1.00;;;;;;;;;;5065361;28;20191;-59
2022/08/07 08:44:34;;;;;;;1.00;1.00;;;;;;;;;;5056238;28;20217;-59
2022/08/07 08:47:06;;;;;;;0.95;0.95;;;;;;;;;;5059193;28;20206;-59
2022/08/07 08:49:44;;;;;;;0.70;0.70;;;;;;;;;;5060276;28;20235;-59
2022/08/07 08:52:21;;;;;;;0.70;0.70;;;;;;;;;;5043632;28;20203;-59
2022/08/07 08:54:51;;;;;;;0.70;0.70;;;;;;;;;;5062571;28;20183;-60
2022/08/07 08:57:20;;;;;;;0.70;0.70;;;;;;;;;;5055113;28;20476;-60
2022/08/07 09:00:12;;;;;;;0.70;0.70;;;;;;;;;;5046045;28;20249;-59
2022/08/07 09:02:38;;;;;;;0.70;0.70;;;;;;;;;;5057567;28;20745;-59
2022/08/07 09:05:13;;;;;;;0.70;0.70;;;;;;;;;;5063383;28;20211;-59
2022/08/07 09:07:43;;;;;;;0.90;0.90;;;;;;;;;;5065621;28;20182;-59
2022/08/07 09:10:18;;;;;;;0.80;0.80;;;;;;;;;;5047602;28;20226;-59
2022/08/07 09:12:47;;;;;;;0.90;0.90;;;;;;;;;;5068913;28;20182;-59
2022/08/07 09:15:16;;;;;;;0.90;0.90;;;;;;;;;;5054132;28;20597;-60
2022/08/07 09:17:48;;;;;;;1.00;1.00;;;;;;;;;;5065374;28;20672;-60
2022/08/07 09:20:32;;;;;;;1.00;1.00;;;;;;;;;;5064584;28;25142;-61
2022/08/07 09:23:20;;;;;;;0.90;0.90;;;;;;;;;;5067388;28;20269;-60
2022/08/07 09:25:51;;;;;;;0.90;0.90;;;;;;;;;;5068650;28;20668;-60
2022/08/07 09:28:27;;;;;;;0.95;0.95;;;;;;;;;;5032474;28;20187;-60
2022/08/07 09:30:56;;;;;;;0.90;0.90;;;;;;;;;;5044596;28;20235;-60
2022/08/07 09:33:36;;;;;;;0.90;0.90;;;;;;;;;;5064920;28;20244;-60
2022/08/07 09:36:03;;;;;;;1.00;1.00;;;;;;;;;;5049057;28;20194;-61
2022/08/07 09:38:42;;;;;;;1.10;1.10;;;;;;;;;;5045932;28;20548;-61
2022/08/07 09:41:12;;;;;;;1.20;1.20;;;;;;;;;;5055963;28;20191;-61
2022/08/07 09:43:44;;;;;;;1.10;1.10;;;;;;;;;;5057460;28;20703;-61
2022/08/07 09:46:29;;;;;;;0.70;0.70;;;;;;;;;;5046705;28;20308;-61
2022/08/07 09:49:08;;;;;;;0.70;0.70;;;;;;;;;;5063056;28;20700;-61
2022/08/07 09:51:39;;;;;;;0.80;0.80;;;;;;;;;;5053659;28;20681;-60
2022/08/07 09:54:06;;;;;;;0.80;0.80;;;;;;;;;;5066129;28;20302;-61
2022/08/07 09:56:32;;;;;;;0.70;0.70;;;;;;;;;;5064070;28;20218;-61
2022/08/07 09:59:09;;;;;;;0.90;0.90;;;;;;;;;;5059764;28;20236;-61
2022/08/07 10:01:35;;;;;;;1.10;1.10;;;;;;;;;;5045714;28;20179;-61
2022/08/07 10:04:01;;;;;;;1.05;1.05;;;;;;;;;;5057912;28;20232;-60
2022/08/07 10:06:46;;;;;;;1.00;1.00;;;;;;;;;;5058931;28;20921;-61
2022/08/07 10:09:24;;;;;;;1.05;1.05;;;;;;;;;;5055398;28;20194;-64
2022/08/07 10:12:16;;;;;;;0.63;0.63;;;;;;;;;;5057645;28;20175;-64
2022/08/07 10:14:45;;;;;;;0.60;0.60;;;;;;;;;;5053553;28;20199;-62
2022/08/07 10:17:23;;;;;;;0.75;0.75;;;;;;;;;;5059942;28;20191;-63
2022/08/07 10:19:57;;;;;;;1.00;1.00;;;;;;;;;;5062582;28;20186;-64
2022/08/07 10:22:28;;;;;;;0.90;0.90;;;;;;;;;;5059018;28;20202;-63
2022/08/07 10:25:03;;;;;;;0.80;0.80;;;;;;;;;;5058652;28;20761;-63
2022/08/07 10:27:41;;;;;;;0.90;0.90;;;;;;;;;;5061870;28;20697;-63
2022/08/07 10:30:08;;;;;;;1.00;1.00;;;;;;;;;;5053549;28;21112;-67
2022/08/07 10:32:52;;;;;;;0.80;0.80;;;;;;;;;;5064792;28;20187;-64
2022/08/07 10:35:35;;;;;;;0.80;0.80;;;;;;;;;;5067957;28;20198;-60
2022/08/07 10:38:19;;;;;;;0.82;0.82;;;;;;;;;;5053792;28;20202;-60
2022/08/07 10:40:53;;;;;;;0.80;0.80;;;;;;;;;;5061120;28;20187;-60
2022/08/07 10:43:19;;;;;;;0.90;0.90;;;;;;;;;;5057899;28;20245;-61
2022/08/07 10:45:49;;;;;;;0.90;0.90;;;;;;;;;;5061439;28;20290;-60
2022/08/07 10:48:26;;;;;;;0.80;0.80;;;;;;;;;;5063062;28;20719;-61
2022/08/07 10:50:56;;;;;;;0.80;0.80;;;;;;;;;;5061200;28;20186;-60
2022/08/07 10:53:44;;;;;;;0.75;0.75;;;;;;;;;;5047154;28;20685;-60
2022/08/07 10:56:10;;;;;;;0.82;0.82;;;;;;;;;;5055197;28;20228;-60
2022/08/07 10:58:55;;;;;;;0.90;0.90;;;;;;;;;;5046596;28;20187;-60
2022/08/07 11:01:30;;;;;;;0.77;0.77;;;;;;;;;;5063530;28;20675;-60
2022/08/07 11:04:04;;;;;;;0.70;0.70;;;;;;;;;;5067898;28;20551;-60
2022/08/07 11:06:42;;;;;;;0.80;0.80;;;;;;;;;;5069184;28;20305;-60
2022/08/07 11:09:29;;;;;;;0.80;0.80;;;;;;;;;;5067928;28;20609;-60
2022/08/07 11:11:58;;;;;;;0.90;0.90;;;;;;;;;;5068190;28;20676;-60
2022/08/07 11:14:26;;;;;;;0.80;0.80;;;;;;;;;;5066423;28;20685;-60
2022/08/07 11:16:54;;;;;;;0.80;0.80;;;;;;;;;;5060801;28;20178;-61
2022/08/07 11:19:24;;;;;;;0.80;0.80;;;;;;;;;;5070805;28;20745;-62
2022/08/07 11:21:54;;;;;;;0.80;0.80;;;;;;;;;;5069740;28;20209;-61
2022/08/07 11:24:21;;;;;;;0.80;0.80;;;;;;;;;;5064731;28;20277;-62
2022/08/07 11:26:52;;;;;;;0.80;0.80;;;;;;;;;;5077119;28;20199;-61
2022/08/07 11:29:25;;;;;;;0.80;0.80;;;;;;;;;;5069902;28;20180;-62
2022/08/07 11:31:52;;;;;;;0.77;0.77;;;;;;;;;;5071968;28;20211;-62
2022/08/07 11:34:20;;;;;;;0.80;0.80;;;;;;;;;;5071669;28;20741;-61
2022/08/07 11:36:54;;;;;;;0.70;0.70;;;;;;;;;;5070132;28;20803;-61
2022/08/07 11:39:32;;;;;;;0.82;0.82;;;;;;;;;;5064015;28;21962;-62
2022/08/07 11:42:00;;;;;;;0.80;0.80;;;;;;;;;;5074449;28;20214;-61
2022/08/07 11:44:35;;;;;;;0.80;0.80;;;;;;;;;;5069788;28;20186;-61
2022/08/07 11:47:08;;;;;;;0.90;0.90;;;;;;;;;;5068703;28;20210;-61
2022/08/07 11:49:42;;;;;;;0.80;0.80;;;;;;;;;;5067781;28;20195;-62
2022/08/07 11:52:46;;;;;;;0.80;0.80;;;;;;;;;;5068716;28;20180;-61
2022/08/07 11:55:32;;;;;;;0.80;0.80;;;;;;;;;;5013910;28;20228;-62
2022/08/07 11:58:14;;;;;;;0.80;0.80;;;;;;;;;;5016872;28;20211;-61
2022/08/07 12:00:45;;;;;;;0.80;0.80;;;;;;;;;;5054495;28;20199;-62
2022/08/07 12:03:15;;;;;;;0.80;0.80;;;;;;;;;;5071852;28;20192;-61
2022/08/07 12:05:47;;;;;;;0.90;0.90;;;;;;;;;;5070322;28;20203;-61
2022/08/07 12:08:18;;;;;;;1.00;1.00;;;;;;;;;;5074639;28;20183;-61
2022/08/07 12:10:46;;;;;;;0.90;0.90;;;;;;;;;;5071043;28;20671;-62
2022/08/07 12:13:22;;;;;;;0.90;0.90;;;;;;;;;;5069567;28;20193;-61
2022/08/07 12:15:50;;;;;;;0.80;0.80;;;;;;;;;;5072628;28;20262;-61
2022/08/07 12:18:25;;;;;;;0.80;0.80;;;;;;;;;;5069807;28;20179;-62
2022/08/07 12:21:00;;;;;;;0.80;0.80;;;;;;;;;;5070600;28;20274;-62
2022/08/07 12:23:46;;;;;;;0.80;0.80;;;;;;;;;;5059099;28;20255;-62
2022/08/07 12:26:15;;;;;;;0.70;0.70;;;;;;;;;;5082370;28;20218;-63
2022/08/07 12:28:42;;;;;;;0.80;0.80;;;;;;;;;;5086354;28;20198;-62
2022/08/07 12:31:11;;;;;;;0.80;0.80;;;;;;;;;;5070594;28;21386;-61
2022/08/07 12:33:37;;;;;;;0.80;0.80;;;;;;;;;;5072816;28;20193;-62
2022/08/07 12:36:03;;;;;;;1.00;1.00;;;;;;;;;;5071672;28;20187;-62
2022/08/07 12:38:30;;;;;;;1.00;1.00;;;;;;;;;;5072465;28;20653;-62
2022/08/07 12:40:56;;;;;;;0.90;0.90;;;;;;;;;;5071487;28;20176;-61
2022/08/07 12:43:23;;;;;;;0.70;0.70;;;;;;;;;;5069018;28;20193;-61
2022/08/07 12:45:53;;;;;;;0.73;0.73;;;;;;;;;;5063093;28;20285;-61
2022/08/07 12:48:36;;;;;;;1.33;1.33;;;;;;;;;;5056667;28;20225;-62
2022/08/07 12:51:20;;;;;;;1.40;1.40;;;;;;;;;;5070667;28;20179;-60
2022/08/07 12:53:56;;;;;;;1.50;1.50;;;;;;;;;;5062660;28;20189;-62
2022/08/07 12:56:27;;;;;;;1.50;1.50;;;;;;;;;;5066235;28;20189;-62
2022/08/07 12:58:53;;;;;;;1.40;1.40;;;;;;;;;;5052705;28;20612;-62
2022/08/07 13:01:25;;;;;;;1.42;1.42;;;;;;;;;;5067354;28;20180;-61
2022/08/07 13:03:54;;;;;;;1.40;1.40;;;;;;;;;;5051666;28;27313;-61
2022/08/07 13:06:32;;;;;;;1.50;1.50;;;;;;;;;;5062862;28;20238;-61
2022/08/07 13:09:22;;;;;;;1.40;1.40;;;;;;;;;;5063541;28;20178;-62
2022/08/07 13:12:07;;;;;;;1.50;1.50;;;;;;;;;;5045258;28;20211;-61
2022/08/07 13:14:33;;;;;;;1.60;1.60;;;;;;;;;;5023372;28;20191;-62
2022/08/07 13:17:10;;;;;;;1.52;1.52;;;;;;;;;;5034322;28;20190;-62
2022/08/07 13:19:42;;;;;;;1.60;1.60;;;;;;;;;;5036316;28;20193;-61
2022/08/07 13:22:07;;;;;;;1.70;1.70;;;;;;;;;;5025491;28;20191;-61
2022/08/07 13:24:52;;;;;;;1.80;1.70;;;;;;;;;;5037263;28;20225;-60
2022/08/07 13:27:26;;;;;;;1.60;1.60;;;;;;;;;;5029156;28;20212;-61
2022/08/07 13:30:00;;;;;;;1.75;1.70;;;;;;;;;;5025244;28;20749;-60
2022/08/07 13:32:29;;;;;;;1.80;1.70;;;;;;;;;;5047174;28;20179;-61
2022/08/07 13:35:04;;;;;;;1.60;1.60;;;;;;;;;;5058975;28;20179;-61
2022/08/07 13:37:38;;;;;;;1.90;1.80;;;;;;;;;;5046297;28;20187;-61
2022/08/07 13:40:04;;;;;;;1.90;1.80;;;;;;;;;;5062141;28;20603;-61
2022/08/07 13:42:30;;;;;;;2.28;2.17;;;;;;;;;;5054973;28;20572;-62
2022/08/07 13:44:56;;;;;;;1.80;1.70;;;;;;;;;;5046470;28;20807;-61
2022/08/07 13:47:22;;;;;;;1.77;1.70;;;;;;;;;;5044020;28;20178;-60
2022/08/07 13:49:48;;;;;;;1.80;1.70;;;;;;;;;;5037336;28;20622;-61
2022/08/07 13:52:14;;;;;;;1.50;1.50;;;;;;;;;;5047238;28;20179;-62
2022/08/07 13:54:40;;;;;;;1.60;1.60;;;;;;;;;;5046599;28;20732;-61
2022/08/07 13:57:11;;;;;;;1.60;1.60;;;;;;;;;;5034211;28;20199;-59
2022/08/07 13:59:37;;;;;;;1.40;1.40;;;;;;;;;;5041295;28;20183;-62
2022/08/07 14:02:07;;;;;;;1.50;1.50;;;;;;;;;;5035758;28;20202;-61
2022/08/07 14:04:34;;;;;;;1.50;1.50;;;;;;;;;;5060679;28;20206;-60
2022/08/07 14:07:00;;;;;;;1.40;1.40;;;;;;;;;;5049797;28;20211;-62
2022/08/07 14:09:27;;;;;;;1.42;1.42;;;;;;;;;;5039711;28;20194;-59
2022/08/07 14:11:56;;;;;;;1.35;1.35;;;;;;;;;;5042426;28;20198;-61
2022/08/07 14:14:23;;;;;;;1.30;1.30;;;;;;;;;;5045062;28;20546;-61
2022/08/07 14:16:49;;;;;;;1.50;1.50;;;;;;;;;;5027968;28;20187;-61
2022/08/07 14:19:20;;;;;;;1.30;1.30;;;;;;;;;;5029833;28;20314;-61
2022/08/07 14:21:47;;;;;;;1.40;1.40;;;;;;;;;;5033193;28;20188;-61
2022/08/07 14:24:19;;;;;;;1.60;1.60;;;;;;;;;;5048213;28;20219;-61
2022/08/07 14:26:49;;;;;;;1.60;1.60;;;;;;;;;;5042841;28;21222;-62
2022/08/07 14:29:17;;;;;;;1.40;1.40;;;;;;;;;;5047116;28;20179;-61
2022/08/07 14:31:43;;;;;;;1.50;1.50;;;;;;;;;;5041327;28;20610;-63
2022/08/07 14:34:09;;;;;;;1.50;1.50;;;;;;;;;;5046851;28;20183;-64
2022/08/07 14:36:35;;;;;;;1.65;1.65;;;;;;;;;;5036957;28;20668;-63
2022/08/07 14:39:02;;;;;;;1.50;1.50;;;;;;;;;;5027486;28;20184;-64
2022/08/07 14:41:31;;;;;;;1.50;1.50;;;;;;;;;;5036472;28;20194;-63
2022/08/07 14:43:56;;;;;;;1.50;1.50;;;;;;;;;;5045562;28;20191;-64
2022/08/07 14:46:23;;;;;;;1.50;1.50;;;;;;;;;;5019037;28;20207;-63
2022/08/07 14:48:50;;;;;;;1.40;1.40;;;;;;;;;;5028377;28;26932;-63
2022/08/07 14:51:20;;;;;;;1.50;1.50;;;;;;;;;;5033054;28;20190;-63
2022/08/07 14:53:47;;;;;;;1.40;1.40;;;;;;;;;;5025960;28;20190;-62
2022/08/07 14:56:13;;;;;;;1.50;1.50;;;;;;;;;;5043237;28;21013;-63
2022/08/07 14:58:47;;;;;;;1.50;1.50;;;;;;;;;;5042774;28;20602;-63
2022/08/07 15:01:16;;;;;;;1.45;1.45;;;;;;;;;;5028399;28;20313;-62